Station KGXA2 - Kodiak Gull Island, AK Image indicating link to RSS feed of recent meteorological observations for station KGXA2


Conditions at KGXA2 as of
(2:54 pm AKDT)
2254 GMT on 07/20/2024:
     

Click on the graph icon in the table below to see a time series plot of the last five days of that observation.

5-day plot - Wind Direction Wind Direction (WDIR): E ( 80 deg true )
5-day plot - Wind Speed Wind Speed (WSPD): 11 kts
5-day plot - Wind Gust Wind Gust (GST): 17 kts
5-day plot - Air Temperature Air Temperature (ATMP): 58.1 °F
5-day plot - Dew Point Dew Point (DEWP): 49.8 °F
5-day plot - Wind Speed at 10 Meters Wind Speed at 10 meters (WSPD10M): 12 kts
5-day plot - Wind Speed at 20 Meters Wind Speed at 20 meters (WSPD20M): 14 kts
5-day plot -  Wind Speed, Wind Gust and Atmospheric Pressure Combined plot of Wind Speed, Gust, and Air Pressure
Previous observations
TIME
(AKDT)
5-day plot - Wind Direction
WDIR
 
5-day plot - Wind Speed
WSPD
kts
5-day plot - Wind Gust
GST
kts
5-day plot - Wave Height
WVHT
ft
5-day plot - Dominant Wave Period
DPD
sec
5-day plot - Average Wave Period
APD
sec
5-day plot - Mean Wave Direction
MWD
 
5-day plot - Atmospheric Pressure
PRES
in
5-day plot - Pressure Tendency
PTDY
in
5-day plot - Air Temperature
ATMP
°F
5-day plot - Water Temperature
WTMP
°F
5-day plot - Dew Point
DEWP
°F
5-day plot - Salinity
SAL
psu
5-day plot - Visibility
VIS
nmi
5-day plot - Tide (above MLLW)
TIDE
ft
2024-07-20 02:44 pm E 11 17------ 58.5- 49.6---
2024-07-20 02:34 pm E 10 15------ 59.2- 49.5---
2024-07-20 02:24 pmENE 12 17------ 59.5- 49.1---
2024-07-20 02:14 pmENE 11 16------ 59.9- 49.1---
2024-07-20 02:04 pm E 10 16------ 60.1- 49.3---
2024-07-20 01:54 pm E 10 15------ 59.9- 49.8---
2024-07-20 01:44 pmESE 7 14------ 61.7- 50.7---
2024-07-20 01:34 pmENE 9 16------ 62.1- 50.5---
2024-07-20 01:24 pm NE 11 17------ 61.9- 50.5---
2024-07-20 01:14 pm NE 12 19------ 62.1- 50.7---
2024-07-20 01:04 pm NE 11 18------ 62.4- 51.1---
2024-07-20 12:54 pmENE 10 20------ 63.0- 51.3---
2024-07-20 12:44 pm NE 11 24------ 63.1- 50.9---
2024-07-20 12:34 pmENE 11 17------ 63.1- 51.1---
2024-07-20 12:24 pm NE 14 22------ 63.1- 51.1---
2024-07-20 12:14 pmENE 12 20------ 63.3- 50.9---
2024-07-20 12:04 pm NE 12 19------ 63.3- 50.9---
2024-07-20 11:54 am NE 13 20------ 63.5- 50.9---
2024-07-20 11:44 am NE 14 21------ 63.3- 50.7---
2024-07-20 11:34 am NE 12 18------ 63.5- 50.5---
2024-07-20 11:24 am NE 12 19------ 63.5- 50.5---
2024-07-20 11:14 am NE 14 20------ 63.3- 50.4---
2024-07-20 11:04 am NE 14 20------ 63.3- 50.4---
2024-07-20 10:54 am NE 13 21------ 63.0- 50.4---
2024-07-20 10:44 am NE 16 26------ 63.0- 50.2---
2024-07-20 10:34 amENE 14 21------ 63.1- 50.2---
2024-07-20 10:24 am NE 15 22------ 63.3- 50.0---
2024-07-20 10:14 am NE 11 17------ 63.5- 50.2---
2024-07-20 10:04 am NE 13 21------ 63.5- 50.0---
2024-07-20 09:54 amENE 13 21------ 63.7- 50.0---
2024-07-20 09:44 am NE 13 21------ 63.9- 50.0---
2024-07-20 09:34 am NE 12 19------ 64.0- 49.8---
2024-07-20 09:24 am NE 10 19------ 64.0- 49.8---
2024-07-20 09:14 am NE 12 21------ 64.0- 49.6---
2024-07-20 09:04 amENE 11 22------ 64.0- 49.6---
2024-07-20 08:54 amENE 9 22------ 64.0- 49.8---
2024-07-20 08:44 amENE 9 19------ 63.7- 49.6---
2024-07-20 08:34 am NE 9 17------ 63.1- 49.5---
2024-07-20 08:24 amNNE 8 14------ 62.6- 49.5---
2024-07-20 08:14 amNNE 9 20------ 62.4- 49.3---
2024-07-20 08:04 amNNE 11 20------ 62.4- 49.3---
2024-07-20 07:54 amNNE 9 18------ 62.2- 49.1---
2024-07-20 07:44 am N 9 17------ 62.4- 49.1---
2024-07-20 07:34 am N 8 15------ 62.6- 49.1---
2024-07-20 07:24 amNNE 3 8------ 62.1- 49.1---
2024-07-20 07:14 am N 4 9------ 62.1- 48.9---
2024-07-20 07:04 amNNE 7 14------ 61.5- 48.7---
2024-07-20 06:54 amNNE 6 10------ 61.7- 48.9---
2024-07-20 06:44 amNNE 5 11------ 60.8- 48.7---
2024-07-20 06:34 amNNE 6 16------ 60.6- 48.6---
2024-07-20 06:24 amNNE 5 13------ 59.4- 48.2---
2024-07-20 06:14 am NE 4 9------ 58.3- 47.7---
2024-07-20 06:04 amNNE 4 11------ 57.6- 47.5---
2024-07-20 05:54 amENE 2 11------ 55.9- 46.8---
2024-07-20 05:44 am N 2 7------ 55.4- 46.6---
2024-07-20 05:34 am N 3 9------ 54.1- 46.2---
2024-07-20 05:24 am S 2 5------ 53.2- 45.9---
2024-07-20 05:14 amSSE 2 6------ 53.6- 45.9---
2024-07-20 05:04 am S 2 5------ 53.2- 45.7---
2024-07-20 04:54 am NE 3 8------ 53.6- 45.9---
2024-07-20 04:44 amSSE 2 5------ 53.4- 45.7---
2024-07-20 04:34 am SE 3 6------ 53.1- 45.7---
2024-07-20 04:24 am SE 2 4------ 53.2- 45.7---
2024-07-20 04:14 am E 2 3------ 53.1- 45.7---
2024-07-20 04:04 am E 3 5------ 52.9- 45.7---
2024-07-20 03:54 amESE 4 6------ 52.3- 45.7---
2024-07-20 03:44 amSSE 2 5------ 52.5- 45.9---
2024-07-20 03:34 amWNW 2 5------ 53.1- 46.0---
2024-07-20 03:24 am E 2 6------ 53.1- 46.0---
2024-07-20 03:14 am S 2 4------ 52.9- 45.9---
2024-07-20 03:04 am S 2 5------ 52.7- 46.0---
2024-07-20 02:54 amSSW 2 5------ 53.6- 45.9---
2024-07-20 02:44 am SE 2 5------ 53.1- 46.0---
2024-07-20 02:34 amESE 3 5------ 53.2- 46.0---
2024-07-20 02:24 am SE 2 5------ 53.2- 46.0---
2024-07-20 02:14 am SE 1 3------ 53.4- 46.0---
2024-07-20 02:04 amENE 2 4------ 53.4- 46.2---
2024-07-20 01:54 amESE 2 3------ 53.6- 46.4---
2024-07-20 01:44 am SE 2 4------ 53.8- 46.2---
2024-07-20 01:34 am E 1 3------ 54.1- 46.6---
2024-07-20 01:24 amESE 1 3------ 54.1- 46.6---
2024-07-20 01:14 amENE 2 4------ 54.0- 46.6---
2024-07-20 01:04 am S 2 4------ 54.5- 46.8---
2024-07-20 12:54 am S 3 5------ 54.5- 46.9---
2024-07-20 12:44 am S 2 4------ 54.9- 47.1---
2024-07-20 12:24 am SW 2 3------ 55.2- 47.1---
2024-07-20 12:14 am S 2 3------ 55.4- 47.1---
2024-07-20 12:04 amSSE 1 3------ 55.6- 47.5---
2024-07-19 11:54 pm SE 2 3------ 55.8- 47.5---
2024-07-19 11:44 pm S 1 3------ 56.1- 47.5---
2024-07-19 11:34 pmSSE 2 4------ 55.9- 47.8---
2024-07-19 11:24 pm E 1 3------ 56.3- 48.0---
2024-07-19 11:14 pmESE 2 3------ 57.0- 48.0---
2024-07-19 11:04 pm- 0 4------ 57.0- 48.4---
2024-07-19 10:54 pm- 0 3------ 57.4- 48.7---
2024-07-19 10:44 pm- 0 2------ 57.6- 48.7---
2024-07-19 10:34 pm- 0 1------ 57.7- 49.3---
2024-07-19 10:24 pm- 0 3------ 58.3- 49.1---
2024-07-19 10:14 pm- 0 1------ 59.0- 48.7---
2024-07-19 10:04 pm- 0 1------ 59.2- 48.7---
2024-07-19 09:54 pm- 0 2------ 59.5- 49.1---
2024-07-19 09:44 pm- 0 1------ 59.2- 49.3---
2024-07-19 09:34 pm- 0 2------ 59.9- 49.8---
2024-07-19 09:24 pm N 1 5------ 60.1- 49.1---
2024-07-19 09:14 pm N 1 3------ 61.0- 49.6---
2024-07-19 09:04 pm- 0 2------ 60.4- 49.5---
2024-07-19 08:54 pm- 0 2------ 59.5- 49.1---
2024-07-19 08:44 pm- 0 2------ 58.3- 48.2---
2024-07-19 08:34 pm NE 1 2------ 58.5- 48.2---
2024-07-19 08:24 pm- 0 1------ 58.8- 48.6---
2024-07-19 08:14 pm- 0 2------ 58.5- 48.0---
2024-07-19 08:04 pmNNW 1 3------ 58.1- 48.2---
2024-07-19 07:54 pmWNW 1 4------ 58.5- 48.7---
2024-07-19 07:44 pm- 0 2------ 58.6- 48.7---
2024-07-19 07:34 pm- 0 2------ 58.1- 47.8---
2024-07-19 07:24 pm- 0 2------ 57.7- 47.8---
2024-07-19 07:14 pm N 1 4------ 57.2- 48.2---
2024-07-19 07:05 pm- 0 1------ 56.7- 48.6---
2024-07-19 06:54 pm- 0 2------ 56.3- 48.4---
2024-07-19 06:44 pm N 1 2------ 55.8- 48.4---
2024-07-19 06:34 pm N 2 3------ 55.4- 48.2---
2024-07-19 06:24 pm S 1 2------ 55.0- 48.2---
2024-07-19 06:14 pm S 2 3------ 54.5- 47.8---
2024-07-19 06:04 pm SW 3 4------ 54.5- 47.8---
2024-07-19 05:54 pmWSW 3 4------ 54.5- 47.7---
2024-07-19 05:44 pm SW 3 4------ 55.0- 47.7---
2024-07-19 05:34 pmWSW 2 5------ 55.8- 48.0---
2024-07-19 05:24 pm W 1 3------ 56.1- 48.4---
2024-07-19 05:14 pm SW 2 3------ 55.6- 47.8---
2024-07-19 05:04 pm SW 2 3------ 55.4- 47.7---
2024-07-19 04:54 pmSSW 2 5------ 55.8- 47.7---
2024-07-19 04:44 pm- 0 2------ 56.5- 48.2---
2024-07-19 04:34 pmWSW 1 3------ 56.1- 48.0---
2024-07-19 04:24 pm- 0 2------ 56.7- 48.4---
2024-07-19 04:14 pm- 0 2------ 56.5- 48.2---
2024-07-19 03:54 pm- 0 2------ 57.0- 48.4---
2024-07-19 03:44 pm- 0 3------ 57.0- 48.6---
2024-07-19 03:34 pm SW 1 5------ 56.7- 48.4---
2024-07-19 03:24 pm SW 1 5------ 56.7- 48.6---
2024-07-19 03:14 pm- 0 4------ 56.3- 48.2---
2024-07-19 03:04 pm- 0 3------ 56.3- 48.7---
2024-07-19 02:54 pmNNW 2 4------ 55.8- 48.2---